sensor_id;sensor_type;location;lat;lon;timestamp;P1;durP1;ratioP1;P2;durP2;ratioP2
46551;SDS011;32278;51.810;4.712;2022-11-21T00:00:49;11.38;;;4.85;;
46551;SDS011;32278;51.810;4.712;2022-11-21T00:03:16;14.27;;;5.07;;
46551;SDS011;32278;51.810;4.712;2022-11-21T00:05:43;17.13;;;7.18;;
46551;SDS011;32278;51.810;4.712;2022-11-21T00:08:10;24.02;;;10.63;;
46551;SDS011;32278;51.810;4.712;2022-11-21T00:10:38;27.77;;;11.07;;
46551;SDS011;32278;51.810;4.712;2022-11-21T00:13:04;29.63;;;12.25;;
46551;SDS011;32278;51.810;4.712;2022-11-21T00:15:31;31.00;;;12.57;;
46551;SDS011;32278;51.810;4.712;2022-11-21T00:17:57;26.13;;;12.10;;
46551;SDS011;32278;51.810;4.712;2022-11-21T00:20:25;32.10;;;14.60;;
46551;SDS011;32278;51.810;4.712;2022-11-21T00:22:51;30.80;;;13.38;;
46551;SDS011;32278;51.810;4.712;2022-11-21T00:25:17;28.13;;;13.73;;
46551;SDS011;32278;51.810;4.712;2022-11-21T00:27:42;34.13;;;15.18;;
46551;SDS011;32278;51.810;4.712;2022-11-21T00:30:08;28.60;;;14.38;;
46551;SDS011;32278;51.810;4.712;2022-11-21T00:32:35;32.17;;;14.70;;
46551;SDS011;32278;51.810;4.712;2022-11-21T00:35:01;32.53;;;15.82;;
46551;SDS011;32278;51.810;4.712;2022-11-21T00:37:27;36.38;;;15.45;;
46551;SDS011;32278;51.810;4.712;2022-11-21T00:39:52;27.70;;;14.20;;
46551;SDS011;32278;51.810;4.712;2022-11-21T00:42:18;35.03;;;14.40;;
46551;SDS011;32278;51.810;4.712;2022-11-21T00:44:43;34.55;;;14.95;;
46551;SDS011;32278;51.810;4.712;2022-11-21T00:47:09;30.60;;;15.50;;
46551;SDS011;32278;51.810;4.712;2022-11-21T00:49:35;33.50;;;14.35;;
46551;SDS011;32278;51.810;4.712;2022-11-21T00:52:00;32.58;;;14.48;;
46551;SDS011;32278;51.810;4.712;2022-11-21T00:54:26;29.60;;;14.57;;
46551;SDS011;32278;51.810;4.712;2022-11-21T00:56:51;31.02;;;15.35;;
46551;SDS011;32278;51.810;4.712;2022-11-21T00:59:17;34.88;;;15.60;;
46551;SDS011;32278;51.810;4.712;2022-11-21T01:01:43;27.85;;;13.60;;
46551;SDS011;32278;51.810;4.712;2022-11-21T01:04:08;22.80;;;12.52;;
46551;SDS011;32278;51.810;4.712;2022-11-21T01:06:36;30.75;;;13.23;;
46551;SDS011;32278;51.810;4.712;2022-11-21T01:09:02;35.78;;;14.82;;
46551;SDS011;32278;51.810;4.712;2022-11-21T01:11:28;30.42;;;14.32;;
46551;SDS011;32278;51.810;4.712;2022-11-21T01:13:54;33.78;;;15.82;;
46551;SDS011;32278;51.810;4.712;2022-11-21T01:16:21;24.83;;;13.50;;
46551;SDS011;32278;51.810;4.712;2022-11-21T01:18:48;29.42;;;14.18;;
46551;SDS011;32278;51.810;4.712;2022-11-21T01:21:15;28.65;;;15.27;;
46551;SDS011;32278;51.810;4.712;2022-11-21T01:23:46;37.95;;;15.77;;
46551;SDS011;32278;51.810;4.712;2022-11-21T01:26:13;37.80;;;15.40;;
46551;SDS011;32278;51.810;4.712;2022-11-21T01:28:41;31.85;;;14.05;;
46551;SDS011;32278;51.810;4.712;2022-11-21T01:31:07;34.38;;;15.13;;
46551;SDS011;32278;51.810;4.712;2022-11-21T01:33:37;34.08;;;15.52;;
46551;SDS011;32278;51.810;4.712;2022-11-21T01:36:11;45.03;;;17.00;;
46551;SDS011;32278;51.810;4.712;2022-11-21T01:38:40;43.05;;;17.70;;
46551;SDS011;32278;51.810;4.712;2022-11-21T01:41:07;36.70;;;17.30;;
46551;SDS011;32278;51.810;4.712;2022-11-21T01:43:34;42.10;;;17.90;;
46551;SDS011;32278;51.810;4.712;2022-11-21T01:46:03;46.42;;;18.23;;
46551;SDS011;32278;51.810;4.712;2022-11-21T01:53:49;48.53;;;21.07;;
46551;SDS011;32278;51.810;4.712;2022-11-21T01:56:22;51.10;;;22.60;;
46551;SDS011;32278;51.810;4.712;2022-11-21T01:58:49;58.25;;;21.55;;
46551;SDS011;32278;51.810;4.712;2022-11-21T02:01:17;58.03;;;23.73;;
46551;SDS011;32278;51.810;4.712;2022-11-21T02:03:43;55.17;;;22.83;;
46551;SDS011;32278;51.810;4.712;2022-11-21T02:06:11;72.35;;;24.30;;
46551;SDS011;32278;51.810;4.712;2022-11-21T02:08:37;67.90;;;25.45;;
46551;SDS011;32278;51.810;4.712;2022-11-21T02:13:32;54.67;;;22.30;;
46551;SDS011;32278;51.810;4.712;2022-11-21T02:15:58;69.78;;;26.83;;
46551;SDS011;32278;51.810;4.712;2022-11-21T02:18:24;74.30;;;25.80;;
46551;SDS011;32278;51.810;4.712;2022-11-21T02:20:50;61.28;;;23.00;;
46551;SDS011;32278;51.810;4.712;2022-11-21T02:25:50;61.33;;;23.48;;
46551;SDS011;32278;51.810;4.712;2022-11-21T02:28:18;62.88;;;24.15;;
46551;SDS011;32278;51.810;4.712;2022-11-21T02:30:45;54.53;;;23.00;;
46551;SDS011;32278;51.810;4.712;2022-11-21T02:33:10;46.80;;;19.23;;
46551;SDS011;32278;51.810;4.712;2022-11-21T02:35:37;55.97;;;21.85;;
46551;SDS011;32278;51.810;4.712;2022-11-21T02:38:04;50.28;;;21.88;;
46551;SDS011;32278;51.810;4.712;2022-11-21T02:40:52;52.75;;;21.17;;
46551;SDS011;32278;51.810;4.712;2022-11-21T02:43:26;60.97;;;22.13;;
46551;SDS011;32278;51.810;4.712;2022-11-21T02:45:55;44.97;;;19.15;;
46551;SDS011;32278;51.810;4.712;2022-11-21T02:48:20;55.30;;;22.05;;
46551;SDS011;32278;51.810;4.712;2022-11-21T02:50:46;55.75;;;24.13;;
46551;SDS011;32278;51.810;4.712;2022-11-21T02:53:13;55.85;;;22.17;;
46551;SDS011;32278;51.810;4.712;2022-11-21T02:55:40;54.92;;;22.13;;
46551;SDS011;32278;51.810;4.712;2022-11-21T02:58:07;73.20;;;26.13;;
46551;SDS011;32278;51.810;4.712;2022-11-21T03:00:34;48.03;;;20.90;;
46551;SDS011;32278;51.810;4.712;2022-11-21T03:03:01;68.78;;;24.80;;
46551;SDS011;32278;51.810;4.712;2022-11-21T03:05:27;76.60;;;26.13;;
46551;SDS011;32278;51.810;4.712;2022-11-21T03:07:52;104.88;;;28.77;;
46551;SDS011;32278;51.810;4.712;2022-11-21T03:10:18;66.55;;;21.73;;
46551;SDS011;32278;51.810;4.712;2022-11-21T03:12:44;102.25;;;28.63;;
46551;SDS011;32278;51.810;4.712;2022-11-21T03:15:11;127.43;;;33.13;;
46551;SDS011;32278;51.810;4.712;2022-11-21T03:17:38;143.00;;;31.38;;
46551;SDS011;32278;51.810;4.712;2022-11-21T03:20:04;130.48;;;28.50;;
46551;SDS011;32278;51.810;4.712;2022-11-21T03:22:31;162.65;;;29.88;;
46551;SDS011;32278;51.810;4.712;2022-11-21T03:24:57;249.50;;;43.17;;
46551;SDS011;32278;51.810;4.712;2022-11-21T03:27:23;145.88;;;29.65;;
46551;SDS011;32278;51.810;4.712;2022-11-21T03:29:48;93.20;;;20.98;;
46551;SDS011;32278;51.810;4.712;2022-11-21T03:32:14;217.52;;;36.28;;
46551;SDS011;32278;51.810;4.712;2022-11-21T03:34:40;241.98;;;38.70;;
46551;SDS011;32278;51.810;4.712;2022-11-21T03:37:06;109.47;;;24.25;;
46551;SDS011;32278;51.810;4.712;2022-11-21T03:39:32;110.00;;;22.65;;
46551;SDS011;32278;51.810;4.712;2022-11-21T03:41:58;205.23;;;37.67;;
46551;SDS011;32278;51.810;4.712;2022-11-21T03:44:23;121.35;;;24.63;;
46551;SDS011;32278;51.810;4.712;2022-11-21T03:46:49;250.32;;;38.63;;
46551;SDS011;32278;51.810;4.712;2022-11-21T03:49:14;201.50;;;31.35;;
46551;SDS011;32278;51.810;4.712;2022-11-21T03:51:40;118.80;;;25.83;;
46551;SDS011;32278;51.810;4.712;2022-11-21T03:54:07;153.48;;;29.30;;
46551;SDS011;32278;51.810;4.712;2022-11-21T03:56:33;151.13;;;27.05;;
46551;SDS011;32278;51.810;4.712;2022-11-21T03:58:59;116.57;;;22.83;;
46551;SDS011;32278;51.810;4.712;2022-11-21T04:01:26;179.77;;;29.70;;
46551;SDS011;32278;51.810;4.712;2022-11-21T04:03:51;96.35;;;21.58;;
46551;SDS011;32278;51.810;4.712;2022-11-21T04:06:18;118.13;;;22.90;;
46551;SDS011;32278;51.810;4.712;2022-11-21T04:08:44;189.05;;;30.35;;
46551;SDS011;32278;51.810;4.712;2022-11-21T04:11:11;200.07;;;33.75;;
46551;SDS011;32278;51.810;4.712;2022-11-21T04:13:37;107.57;;;22.08;;
46551;SDS011;32278;51.810;4.712;2022-11-21T04:16:02;206.63;;;37.55;;
46551;SDS011;32278;51.810;4.712;2022-11-21T04:18:28;128.65;;;27.42;;
46551;SDS011;32278;51.810;4.712;2022-11-21T04:21:02;131.63;;;26.55;;
46551;SDS011;32278;51.810;4.712;2022-11-21T04:23:29;149.07;;;26.58;;
46551;SDS011;32278;51.810;4.712;2022-11-21T04:25:55;76.13;;;21.08;;
46551;SDS011;32278;51.810;4.712;2022-11-21T04:28:20;97.68;;;22.90;;
46551;SDS011;32278;51.810;4.712;2022-11-21T04:30:47;124.00;;;24.42;;
46551;SDS011;32278;51.810;4.712;2022-11-21T04:33:13;95.93;;;21.67;;
46551;SDS011;32278;51.810;4.712;2022-11-21T04:35:41;86.20;;;21.40;;
46551;SDS011;32278;51.810;4.712;2022-11-21T04:38:08;122.63;;;25.42;;
46551;SDS011;32278;51.810;4.712;2022-11-21T04:40:35;71.70;;;20.02;;
46551;SDS011;32278;51.810;4.712;2022-11-21T04:43:00;100.72;;;22.85;;
46551;SDS011;32278;51.810;4.712;2022-11-21T04:45:26;86.18;;;24.85;;
46551;SDS011;32278;51.810;4.712;2022-11-21T04:47:52;73.78;;;22.23;;
46551;SDS011;32278;51.810;4.712;2022-11-21T04:50:18;114.60;;;25.67;;
46551;SDS011;32278;51.810;4.712;2022-11-21T04:52:50;137.15;;;30.98;;
46551;SDS011;32278;51.810;4.712;2022-11-21T04:57:43;142.73;;;29.33;;
46551;SDS011;32278;51.810;4.712;2022-11-21T05:00:09;110.45;;;25.83;;
46551;SDS011;32278;51.810;4.712;2022-11-21T05:02:36;124.35;;;25.98;;
46551;SDS011;32278;51.810;4.712;2022-11-21T05:05:01;185.63;;;30.88;;
46551;SDS011;32278;51.810;4.712;2022-11-21T05:07:27;174.40;;;29.52;;
46551;SDS011;32278;51.810;4.712;2022-11-21T05:09:52;142.52;;;27.92;;
46551;SDS011;32278;51.810;4.712;2022-11-21T05:12:18;182.07;;;34.03;;
46551;SDS011;32278;51.810;4.712;2022-11-21T05:15:03;150.63;;;29.08;;
46551;SDS011;32278;51.810;4.712;2022-11-21T05:17:28;96.07;;;21.35;;
46551;SDS011;32278;51.810;4.712;2022-11-21T05:19:54;215.30;;;33.42;;
46551;SDS011;32278;51.810;4.712;2022-11-21T05:22:20;151.75;;;25.65;;
46551;SDS011;32278;51.810;4.712;2022-11-21T05:24:45;144.60;;;26.63;;
46551;SDS011;32278;51.810;4.712;2022-11-21T05:27:11;140.05;;;22.65;;
46551;SDS011;32278;51.810;4.712;2022-11-21T05:29:37;158.23;;;28.15;;
46551;SDS011;32278;51.810;4.712;2022-11-21T05:32:02;61.90;;;16.98;;
46551;SDS011;32278;51.810;4.712;2022-11-21T05:34:28;150.40;;;30.25;;
46551;SDS011;32278;51.810;4.712;2022-11-21T05:36:53;176.15;;;29.73;;
46551;SDS011;32278;51.810;4.712;2022-11-21T05:39:23;111.93;;;24.50;;
46551;SDS011;32278;51.810;4.712;2022-11-21T05:41:49;145.35;;;29.05;;
46551;SDS011;32278;51.810;4.712;2022-11-21T05:44:15;68.40;;;18.77;;
46551;SDS011;32278;51.810;4.712;2022-11-21T05:46:40;68.45;;;17.92;;
46551;SDS011;32278;51.810;4.712;2022-11-21T05:49:06;123.80;;;25.35;;
46551;SDS011;32278;51.810;4.712;2022-11-21T05:51:32;170.65;;;33.22;;
46551;SDS011;32278;51.810;4.712;2022-11-21T05:53:58;87.07;;;20.77;;
46551;SDS011;32278;51.810;4.712;2022-11-21T05:56:23;85.10;;;20.48;;
46551;SDS011;32278;51.810;4.712;2022-11-21T05:58:49;106.53;;;24.42;;
46551;SDS011;32278;51.810;4.712;2022-11-21T06:01:15;81.45;;;21.42;;
46551;SDS011;32278;51.810;4.712;2022-11-21T06:04:01;87.85;;;19.70;;
46551;SDS011;32278;51.810;4.712;2022-11-21T06:06:27;160.93;;;33.45;;
46551;SDS011;32278;51.810;4.712;2022-11-21T06:08:52;113.85;;;25.85;;
46551;SDS011;32278;51.810;4.712;2022-11-21T06:11:18;92.55;;;22.50;;
46551;SDS011;32278;51.810;4.712;2022-11-21T06:13:43;92.03;;;22.33;;
46551;SDS011;32278;51.810;4.712;2022-11-21T06:16:10;52.80;;;15.88;;
46551;SDS011;32278;51.810;4.712;2022-11-21T06:18:41;113.82;;;24.73;;
46551;SDS011;32278;51.810;4.712;2022-11-21T06:21:11;190.00;;;29.75;;
46551;SDS011;32278;51.810;4.712;2022-11-21T06:23:38;139.70;;;28.05;;
46551;SDS011;32278;51.810;4.712;2022-11-21T06:26:05;189.02;;;34.38;;
46551;SDS011;32278;51.810;4.712;2022-11-21T06:28:33;192.20;;;32.00;;
46551;SDS011;32278;51.810;4.712;2022-11-21T06:31:04;151.63;;;27.40;;
46551;SDS011;32278;51.810;4.712;2022-11-21T06:33:31;121.10;;;24.25;;
46551;SDS011;32278;51.810;4.712;2022-11-21T06:36:02;121.15;;;26.15;;
46551;SDS011;32278;51.810;4.712;2022-11-21T06:38:28;153.07;;;27.48;;
46551;SDS011;32278;51.810;4.712;2022-11-21T06:40:54;62.10;;;16.10;;
46551;SDS011;32278;51.810;4.712;2022-11-21T06:43:20;70.18;;;18.50;;
46551;SDS011;32278;51.810;4.712;2022-11-21T06:45:45;55.33;;;17.15;;
46551;SDS011;32278;51.810;4.712;2022-11-21T06:48:11;72.90;;;19.52;;
46551;SDS011;32278;51.810;4.712;2022-11-21T06:50:36;83.03;;;20.23;;
46551;SDS011;32278;51.810;4.712;2022-11-21T06:53:02;68.43;;;21.17;;
46551;SDS011;32278;51.810;4.712;2022-11-21T06:55:29;54.28;;;16.88;;
46551;SDS011;32278;51.810;4.712;2022-11-21T06:57:58;31.35;;;13.65;;
46551;SDS011;32278;51.810;4.712;2022-11-21T07:00:25;35.95;;;13.35;;
46551;SDS011;32278;51.810;4.712;2022-11-21T07:02:52;46.70;;;16.00;;
46551;SDS011;32278;51.810;4.712;2022-11-21T07:05:18;41.42;;;15.40;;
46551;SDS011;32278;51.810;4.712;2022-11-21T07:07:44;25.95;;;11.68;;
46551;SDS011;32278;51.810;4.712;2022-11-21T07:10:10;26.02;;;12.52;;
46551;SDS011;32278;51.810;4.712;2022-11-21T07:12:36;36.25;;;12.77;;
46551;SDS011;32278;51.810;4.712;2022-11-21T07:15:19;34.58;;;12.95;;
46551;SDS011;32278;51.810;4.712;2022-11-21T07:17:45;22.27;;;10.98;;
46551;SDS011;32278;51.810;4.712;2022-11-21T07:20:11;24.45;;;11.57;;
46551;SDS011;32278;51.810;4.712;2022-11-21T07:22:37;29.95;;;12.10;;
46551;SDS011;32278;51.810;4.712;2022-11-21T07:25:03;21.85;;;10.55;;
46551;SDS011;32278;51.810;4.712;2022-11-21T07:27:29;28.08;;;12.23;;
46551;SDS011;32278;51.810;4.712;2022-11-21T07:29:54;24.30;;;11.10;;
46551;SDS011;32278;51.810;4.712;2022-11-21T07:32:25;30.45;;;11.93;;
46551;SDS011;32278;51.810;4.712;2022-11-21T07:34:52;24.42;;;9.48;;
46551;SDS011;32278;51.810;4.712;2022-11-21T07:37:18;18.63;;;8.57;;
46551;SDS011;32278;51.810;4.712;2022-11-21T07:39:43;21.35;;;9.73;;
46551;SDS011;32278;51.810;4.712;2022-11-21T07:42:09;25.58;;;11.13;;
46551;SDS011;32278;51.810;4.712;2022-11-21T07:44:35;18.58;;;8.65;;
46551;SDS011;32278;51.810;4.712;2022-11-21T07:47:00;22.50;;;9.68;;
46551;SDS011;32278;51.810;4.712;2022-11-21T07:49:26;22.30;;;10.00;;
46551;SDS011;32278;51.810;4.712;2022-11-21T07:51:52;17.17;;;8.63;;
46551;SDS011;32278;51.810;4.712;2022-11-21T07:54:17;29.40;;;10.77;;
46551;SDS011;32278;51.810;4.712;2022-11-21T07:56:43;19.90;;;9.55;;
46551;SDS011;32278;51.810;4.712;2022-11-21T07:59:09;21.67;;;10.65;;
46551;SDS011;32278;51.810;4.712;2022-11-21T08:01:34;20.10;;;8.35;;
46551;SDS011;32278;51.810;4.712;2022-11-21T08:04:00;22.98;;;8.60;;
46551;SDS011;32278;51.810;4.712;2022-11-21T08:06:25;17.05;;;8.20;;
46551;SDS011;32278;51.810;4.712;2022-11-21T08:08:54;19.70;;;7.82;;
46551;SDS011;32278;51.810;4.712;2022-11-21T08:11:19;21.85;;;9.90;;
46551;SDS011;32278;51.810;4.712;2022-11-21T08:13:45;17.58;;;8.95;;
46551;SDS011;32278;51.810;4.712;2022-11-21T08:16:11;18.40;;;8.85;;
46551;SDS011;32278;51.810;4.712;2022-11-21T08:18:37;28.25;;;10.85;;
46551;SDS011;32278;51.810;4.712;2022-11-21T08:21:03;19.80;;;8.35;;
46551;SDS011;32278;51.810;4.712;2022-11-21T08:23:29;22.48;;;9.25;;
46551;SDS011;32278;51.810;4.712;2022-11-21T08:25:55;19.92;;;8.98;;
46551;SDS011;32278;51.810;4.712;2022-11-21T08:28:21;31.65;;;8.32;;
46551;SDS011;32278;51.810;4.712;2022-11-21T08:30:47;17.25;;;7.20;;
46551;SDS011;32278;51.810;4.712;2022-11-21T08:33:13;19.13;;;8.32;;
46551;SDS011;32278;51.810;4.712;2022-11-21T08:35:38;19.33;;;7.75;;
46551;SDS011;32278;51.810;4.712;2022-11-21T08:38:04;14.25;;;6.35;;
46551;SDS011;32278;51.810;4.712;2022-11-21T08:40:30;9.88;;;5.22;;
46551;SDS011;32278;51.810;4.712;2022-11-21T08:43:00;17.20;;;6.53;;
46551;SDS011;32278;51.810;4.712;2022-11-21T08:45:28;18.92;;;6.10;;
46551;SDS011;32278;51.810;4.712;2022-11-21T08:47:54;14.93;;;4.93;;
46551;SDS011;32278;51.810;4.712;2022-11-21T08:50:20;18.77;;;5.60;;
46551;SDS011;32278;51.810;4.712;2022-11-21T08:52:46;13.32;;;5.53;;
46551;SDS011;32278;51.810;4.712;2022-11-21T08:55:13;20.90;;;5.93;;
46551;SDS011;32278;51.810;4.712;2022-11-21T08:57:39;16.75;;;6.82;;
46551;SDS011;32278;51.810;4.712;2022-11-21T09:00:06;19.00;;;6.38;;
46551;SDS011;32278;51.810;4.712;2022-11-21T09:02:33;21.35;;;7.38;;
46551;SDS011;32278;51.810;4.712;2022-11-21T09:04:59;16.95;;;7.88;;
46551;SDS011;32278;51.810;4.712;2022-11-21T09:07:25;16.98;;;7.00;;
46551;SDS011;32278;51.810;4.712;2022-11-21T09:09:51;25.13;;;7.82;;
46551;SDS011;32278;51.810;4.712;2022-11-21T09:12:17;24.17;;;7.25;;
46551;SDS011;32278;51.810;4.712;2022-11-21T09:14:43;19.23;;;7.80;;
46551;SDS011;32278;51.810;4.712;2022-11-21T09:17:27;21.70;;;7.95;;
46551;SDS011;32278;51.810;4.712;2022-11-21T09:20:11;23.20;;;8.52;;
46551;SDS011;32278;51.810;4.712;2022-11-21T09:22:36;16.73;;;6.88;;
46551;SDS011;32278;51.810;4.712;2022-11-21T09:25:02;24.17;;;8.10;;
46551;SDS011;32278;51.810;4.712;2022-11-21T09:27:28;19.77;;;8.07;;
46551;SDS011;32278;51.810;4.712;2022-11-21T09:29:54;19.67;;;6.90;;
46551;SDS011;32278;51.810;4.712;2022-11-21T09:32:20;13.88;;;6.43;;
46551;SDS011;32278;51.810;4.712;2022-11-21T09:34:46;17.25;;;7.28;;
46551;SDS011;32278;51.810;4.712;2022-11-21T09:37:11;19.63;;;7.63;;
46551;SDS011;32278;51.810;4.712;2022-11-21T09:39:37;16.90;;;6.95;;
46551;SDS011;32278;51.810;4.712;2022-11-21T09:42:42;18.30;;;6.68;;
46551;SDS011;32278;51.810;4.712;2022-11-21T09:47:51;17.90;;;7.22;;
46551;SDS011;32278;51.810;4.712;2022-11-21T09:50:25;24.17;;;7.05;;
46551;SDS011;32278;51.810;4.712;2022-11-21T09:52:57;20.85;;;8.20;;
46551;SDS011;32278;51.810;4.712;2022-11-21T10:00:43;18.45;;;6.63;;
46551;SDS011;32278;51.810;4.712;2022-11-21T10:03:09;15.38;;;5.45;;
46551;SDS011;32278;51.810;4.712;2022-11-21T10:05:38;18.30;;;6.05;;
46551;SDS011;32278;51.810;4.712;2022-11-21T10:08:15;22.05;;;6.63;;
46551;SDS011;32278;51.810;4.712;2022-11-21T10:10:54;13.65;;;5.55;;
46551;SDS011;32278;51.810;4.712;2022-11-21T10:13:31;18.20;;;5.45;;
46551;SDS011;32278;51.810;4.712;2022-11-21T10:19:21;13.77;;;5.30;;
46551;SDS011;32278;51.810;4.712;2022-11-21T10:21:59;13.75;;;5.40;;
46551;SDS011;32278;51.810;4.712;2022-11-21T10:24:43;12.07;;;5.90;;
46551;SDS011;32278;51.810;4.712;2022-11-21T10:27:13;19.90;;;6.85;;
46551;SDS011;32278;51.810;4.712;2022-11-21T10:29:48;17.90;;;5.43;;
46551;SDS011;32278;51.810;4.712;2022-11-21T10:32:23;17.42;;;7.00;;
46551;SDS011;32278;51.810;4.712;2022-11-21T10:34:52;11.90;;;5.60;;
46551;SDS011;32278;51.810;4.712;2022-11-21T10:39:56;19.35;;;5.43;;
46551;SDS011;32278;51.810;4.712;2022-11-21T10:42:34;12.27;;;5.32;;
46551;SDS011;32278;51.810;4.712;2022-11-21T10:45:04;14.95;;;5.30;;
46551;SDS011;32278;51.810;4.712;2022-11-21T10:47:43;13.18;;;4.65;;
46551;SDS011;32278;51.810;4.712;2022-11-21T10:56:14;8.43;;;4.10;;
46551;SDS011;32278;51.810;4.712;2022-11-21T10:58:44;8.75;;;3.95;;
46551;SDS011;32278;51.810;4.712;2022-11-21T11:01:22;10.25;;;3.58;;
46551;SDS011;32278;51.810;4.712;2022-11-21T11:06:33;8.20;;;3.85;;
46551;SDS011;32278;51.810;4.712;2022-11-21T11:09:00;11.40;;;4.07;;
46551;SDS011;32278;51.810;4.712;2022-11-21T11:11:26;11.70;;;3.58;;
46551;SDS011;32278;51.810;4.712;2022-11-21T11:13:54;11.48;;;3.35;;
46551;SDS011;32278;51.810;4.712;2022-11-21T11:16:29;11.38;;;3.28;;
46551;SDS011;32278;51.810;4.712;2022-11-21T11:19:00;11.75;;;3.63;;
46551;SDS011;32278;51.810;4.712;2022-11-21T11:23:54;6.47;;;2.75;;
46551;SDS011;32278;51.810;4.712;2022-11-21T11:26:55;8.63;;;3.50;;
46551;SDS011;32278;51.810;4.712;2022-11-21T11:29:30;10.82;;;2.83;;
46551;SDS011;32278;51.810;4.712;2022-11-21T11:32:11;9.98;;;2.85;;
46551;SDS011;32278;51.810;4.712;2022-11-21T11:34:41;12.48;;;3.15;;
46551;SDS011;32278;51.810;4.712;2022-11-21T11:40:01;7.25;;;2.88;;
46551;SDS011;32278;51.810;4.712;2022-11-21T11:52:37;14.00;;;2.38;;
46551;SDS011;32278;51.810;4.712;2022-11-21T11:55:07;5.85;;;2.03;;
46551;SDS011;32278;51.810;4.712;2022-11-21T11:57:41;7.13;;;2.47;;
46551;SDS011;32278;51.810;4.712;2022-11-21T12:00:20;3.83;;;1.83;;
46551;SDS011;32278;51.810;4.712;2022-11-21T12:05:50;18.08;;;2.42;;
46551;SDS011;32278;51.810;4.712;2022-11-21T12:08:32;6.55;;;3.03;;
46551;SDS011;32278;51.810;4.712;2022-11-21T12:11:12;5.25;;;2.03;;
46551;SDS011;32278;51.810;4.712;2022-11-21T12:14:12;5.53;;;1.80;;
46551;SDS011;32278;51.810;4.712;2022-11-21T12:17:04;7.75;;;1.83;;
46551;SDS011;32278;51.810;4.712;2022-11-21T12:19:32;10.98;;;2.20;;
46551;SDS011;32278;51.810;4.712;2022-11-21T12:21:59;5.95;;;1.80;;
46551;SDS011;32278;51.810;4.712;2022-11-21T12:24:27;8.27;;;2.30;;
46551;SDS011;32278;51.810;4.712;2022-11-21T12:26:59;7.68;;;1.90;;
46551;SDS011;32278;51.810;4.712;2022-11-21T12:49:42;5.13;;;1.92;;
46551;SDS011;32278;51.810;4.712;2022-11-21T12:52:39;7.35;;;2.05;;
46551;SDS011;32278;51.810;4.712;2022-11-21T12:55:35;4.47;;;2.08;;
46551;SDS011;32278;51.810;4.712;2022-11-21T13:01:16;8.45;;;2.20;;
46551;SDS011;32278;51.810;4.712;2022-11-21T13:04:04;9.45;;;2.97;;
46551;SDS011;32278;51.810;4.712;2022-11-21T13:06:44;9.35;;;2.10;;
46551;SDS011;32278;51.810;4.712;2022-11-21T13:09:14;7.60;;;1.75;;
46551;SDS011;32278;51.810;4.712;2022-11-21T13:11:45;7.20;;;2.20;;
46551;SDS011;32278;51.810;4.712;2022-11-21T13:22:54;2.70;;;1.60;;
46551;SDS011;32278;51.810;4.712;2022-11-21T13:30:46;4.45;;;2.03;;
46551;SDS011;32278;51.810;4.712;2022-11-21T13:36:05;5.32;;;1.50;;
46551;SDS011;32278;51.810;4.712;2022-11-21T13:46:56;5.55;;;1.80;;
46551;SDS011;32278;51.810;4.712;2022-11-21T13:49:23;13.68;;;2.35;;
46551;SDS011;32278;51.810;4.712;2022-11-21T13:52:01;6.38;;;1.98;;
46551;SDS011;32278;51.810;4.712;2022-11-21T14:08:43;8.15;;;1.75;;
46551;SDS011;32278;51.810;4.712;2022-11-21T14:19:41;7.50;;;2.70;;
46551;SDS011;32278;51.810;4.712;2022-11-21T14:22:15;8.80;;;2.75;;
46551;SDS011;32278;51.810;4.712;2022-11-21T14:25:04;9.07;;;2.63;;
46551;SDS011;32278;51.810;4.712;2022-11-21T14:27:38;7.60;;;2.22;;
46551;SDS011;32278;51.810;4.712;2022-11-21T14:30:05;6.80;;;2.65;;
46551;SDS011;32278;51.810;4.712;2022-11-21T14:32:49;13.57;;;2.47;;
46551;SDS011;32278;51.810;4.712;2022-11-21T14:35:19;6.22;;;2.80;;
46551;SDS011;32278;51.810;4.712;2022-11-21T14:37:46;12.20;;;3.00;;
46551;SDS011;32278;51.810;4.712;2022-11-21T14:40:19;16.25;;;3.28;;
46551;SDS011;32278;51.810;4.712;2022-11-21T14:42:46;11.30;;;2.60;;
46551;SDS011;32278;51.810;4.712;2022-11-21T14:45:21;14.10;;;3.25;;
46551;SDS011;32278;51.810;4.712;2022-11-21T14:47:48;6.43;;;3.13;;
46551;SDS011;32278;51.810;4.712;2022-11-21T14:50:22;7.30;;;3.13;;
46551;SDS011;32278;51.810;4.712;2022-11-21T14:52:54;12.00;;;3.42;;
46551;SDS011;32278;51.810;4.712;2022-11-21T14:55:27;11.70;;;3.47;;
46551;SDS011;32278;51.810;4.712;2022-11-21T14:57:54;9.25;;;3.28;;
46551;SDS011;32278;51.810;4.712;2022-11-21T15:00:25;9.80;;;2.95;;
46551;SDS011;32278;51.810;4.712;2022-11-21T15:02:52;14.15;;;2.65;;
46551;SDS011;32278;51.810;4.712;2022-11-21T15:05:20;8.73;;;3.00;;
46551;SDS011;32278;51.810;4.712;2022-11-21T15:07:47;11.48;;;3.60;;
46551;SDS011;32278;51.810;4.712;2022-11-21T15:10:14;10.02;;;3.00;;
46551;SDS011;32278;51.810;4.712;2022-11-21T15:17:48;12.98;;;3.55;;
46551;SDS011;32278;51.810;4.712;2022-11-21T15:20:22;13.43;;;3.70;;
46551;SDS011;32278;51.810;4.712;2022-11-21T15:22:48;10.00;;;2.70;;
46551;SDS011;32278;51.810;4.712;2022-11-21T15:25:18;15.10;;;3.20;;
46551;SDS011;32278;51.810;4.712;2022-11-21T15:30:24;11.43;;;2.67;;
46551;SDS011;32278;51.810;4.712;2022-11-21T15:43:44;11.20;;;2.75;;
46551;SDS011;32278;51.810;4.712;2022-11-21T15:48:40;13.20;;;3.47;;
46551;SDS011;32278;51.810;4.712;2022-11-21T15:51:08;16.05;;;3.45;;
46551;SDS011;32278;51.810;4.712;2022-11-21T15:53:34;7.55;;;2.70;;
46551;SDS011;32278;51.810;4.712;2022-11-21T15:56:00;13.38;;;3.90;;
46551;SDS011;32278;51.810;4.712;2022-11-21T15:58:26;10.98;;;3.95;;
46551;SDS011;32278;51.810;4.712;2022-11-21T16:00:51;12.02;;;3.30;;
46551;SDS011;32278;51.810;4.712;2022-11-21T16:03:17;14.60;;;2.92;;
46551;SDS011;32278;51.810;4.712;2022-11-21T16:05:43;8.32;;;2.70;;
46551;SDS011;32278;51.810;4.712;2022-11-21T16:08:08;6.75;;;3.05;;
46551;SDS011;32278;51.810;4.712;2022-11-21T16:10:34;15.18;;;3.65;;
46551;SDS011;32278;51.810;4.712;2022-11-21T16:13:00;9.88;;;3.13;;
46551;SDS011;32278;51.810;4.712;2022-11-21T16:15:26;8.88;;;3.03;;
46551;SDS011;32278;51.810;4.712;2022-11-21T16:17:52;7.07;;;3.10;;
46551;SDS011;32278;51.810;4.712;2022-11-21T16:20:17;10.70;;;3.35;;
46551;SDS011;32278;51.810;4.712;2022-11-21T16:22:43;13.77;;;4.05;;
46551;SDS011;32278;51.810;4.712;2022-11-21T16:25:09;9.32;;;3.13;;
46551;SDS011;32278;51.810;4.712;2022-11-21T16:27:35;10.57;;;3.60;;
46551;SDS011;32278;51.810;4.712;2022-11-21T16:30:00;7.82;;;3.67;;
46551;SDS011;32278;51.810;4.712;2022-11-21T16:32:26;10.35;;;2.83;;
46551;SDS011;32278;51.810;4.712;2022-11-21T16:34:52;10.10;;;3.28;;
46551;SDS011;32278;51.810;4.712;2022-11-21T16:37:18;7.15;;;3.00;;
46551;SDS011;32278;51.810;4.712;2022-11-21T16:39:44;13.18;;;4.28;;
46551;SDS011;32278;51.810;4.712;2022-11-21T16:42:16;6.80;;;3.45;;
46551;SDS011;32278;51.810;4.712;2022-11-21T16:44:42;14.13;;;3.80;;
46551;SDS011;32278;51.810;4.712;2022-11-21T16:47:09;10.93;;;3.78;;
46551;SDS011;32278;51.810;4.712;2022-11-21T16:49:35;9.00;;;3.35;;
46551;SDS011;32278;51.810;4.712;2022-11-21T16:52:07;9.33;;;3.27;;
46551;SDS011;32278;51.810;4.712;2022-11-21T16:54:33;12.32;;;3.42;;
46551;SDS011;32278;51.810;4.712;2022-11-21T16:56:59;16.50;;;4.45;;
46551;SDS011;32278;51.810;4.712;2022-11-21T16:59:24;12.40;;;3.35;;
46551;SDS011;32278;51.810;4.712;2022-11-21T17:01:50;16.33;;;3.42;;